Weather in Atherstone

Below you'll find a small selection of weather data - taken in 15 minute 4 hour 15 minute intervals - from the town I live in, Atherstone, Warwickshire. Oh and I've made a past 24, 48 and 96 hour comparison chart too.

TIME OBSERVATION TEMP HUMIDITY PRESSURE WIND
11/06 13:00 Mostly Cloudy 19.7°C 63% 1026mb 2.2mph (South)
11/06 12:45 Mostly Cloudy 19.8°C 65% 1026mb 6.9mph (SW)
11/06 12:30 Mostly Cloudy 20.0°C 64% 1026mb 7.6mph (North)
11/06 12:15 Mostly Cloudy 20.4°C 66% 1026mb 3.8mph (NW)
11/06 12:00 Mostly Cloudy 19.9°C 68% 1026mb 4.5mph (South)
11/06 11:45 Mostly Cloudy 19.5°C 70% 1025mb 4.5mph (SW)
11/06 11:30 Mostly Cloudy 19.2°C 71% 1025mb 9.2mph (South)
11/06 11:15 Mostly Cloudy 18.8°C 70% 1025mb 7.6mph (SE)
11/06 11:00 Mostly Cloudy 18.9°C 70% 1025mb 8.3mph (SW)
11/06 10:45 Mostly Cloudy 18.9°C 72% 1025mb 7.6mph (NW)
11/06 10:30 Mostly Cloudy 18.1°C 74% 1025mb 0.7mph (West)
11/06 10:15 Mostly Cloudy 18.1°C 75% 1024mb 4.5mph (SW)
11/06 10:00 Mostly Cloudy 17.8°C 74% 1024mb 4.5mph (North)
11/06 09:45 Scattered Clouds 17.9°C 76% 1024mb 8.3mph (South)
11/06 09:30 Scattered Clouds 17.5°C 77% 1024mb 3.8mph (NW)
11/06 09:15 Scattered Clouds 17.2°C 78% 1024mb 4.5mph (NW)
11/06 09:00 Scattered Clouds 17.2°C 79% 1024mb 3.1mph (WNW)
11/06 08:45 Scattered Clouds 16.8°C 81% 1024mb 4.5mph (SW)
11/06 08:30 Scattered Clouds 16.3°C 83% 1024mb 9.8mph (SSW)
11/06 08:15 Mostly Cloudy 16.1°C 84% 1023mb 10.7mph (SW)
11/06 08:00 Mostly Cloudy 16.0°C 89% 1023mb 5.4mph (SW)
11/06 07:45 Partly Cloudy 15.1°C 93% 1023mb 6.9mph (South)
11/06 07:30 Partly Cloudy 14.4°C 95% 1023mb 6.0mph (South)
11/06 07:15 Clear 14.2°C 96% 1023mb 3.8mph (NE)
11/06 07:00 Clear 14.1°C 97% 1023mb 4.5mph (South)
11/06 06:45 Partly Cloudy 13.8°C 97% 1022mb 6.0mph (SSW)
11/06 06:30 Partly Cloudy 13.6°C 100% 1022mb 1.6mph (NE)
11/06 06:15 Partly Cloudy 13.3°C 100% 1022mb 4.5mph (SW)
11/06 06:00 Partly Cloudy 13.1°C 100% 1022mb 3.1mph (South)
11/06 05:45 Clear 12.9°C 100% 1022mb 3.1mph (South)
11/06 05:30 Clear 12.7°C 100% 1022mb 3.8mph (SW)
11/06 05:15 Clear 12.5°C 100% 1022mb 3.1mph (NW)
11/06 05:00 Clear 12.5°C 100% 1022mb 3.1mph (SW)
11/06 04:45 Clear 12.5°C 97% 1022mb 6.9mph (North)
11/06 04:30 Clear 12.6°C 97% 1022mb 6.9mph (SW)
11/06 04:15 Clear 12.6°C 97% 1022mb 6.9mph (South)
11/06 04:00 Clear 12.6°C 97% 1022mb 4.5mph (South)
11/06 03:45 Clear 12.6°C 96% 1021mb 3.8mph (SW)
11/06 03:30 Clear 12.5°C 96% 1021mb 5.4mph (SW)
11/06 03:15 Clear 12.2°C 94% 1021mb 3.8mph (South)
11/06 03:00 Clear 12.3°C 94% 1021mb 4.5mph (SW)
11/06 02:45 Clear 12.4°C 94% 1021mb 6.9mph (SW)
11/06 02:30 Clear 12.5°C 93% 1021mb 8.3mph (SW)
11/06 02:15 Partly Cloudy 12.6°C 93% 1021mb 8.3mph (SW)
11/06 02:00 Partly Cloudy 12.6°C 93% 1021mb 6.9mph (SW)
11/06 01:45 Partly Cloudy 12.6°C 93% 1021mb 7.6mph (SW)
11/06 01:30 Partly Cloudy 12.5°C 92% 1021mb 5.4mph (South)
11/06 01:15 Partly Cloudy 12.5°C 91% 1021mb 5.4mph (South)
11/06 01:00 Partly Cloudy 12.6°C 90% 1021mb 6.9mph (NW)
11/06 00:45 Partly Cloudy 12.8°C 89% 1020mb 5.4mph (SSW)
11/06 00:30 Partly Cloudy 13.0°C 88% 1020mb 3.1mph (SW)
11/06 00:15 Partly Cloudy 13.2°C 88% 1020mb 6.0mph (SW)
11/06 00:00 Partly Cloudy 13.2°C 89% 1020mb 4.5mph (NNW)
10/06 23:45 Clear 12.9°C 88% 1020mb 3.8mph (WNW)
10/06 23:30 Clear 12.9°C 87% 1020mb 5.4mph (South)
10/06 23:15 Clear 13.2°C 87% 1019mb 3.8mph (East)
10/06 23:00 Clear 13.4°C 86% 1019mb 5.4mph (West)
10/06 22:45 Clear 13.6°C 86% 1019mb 7.6mph (SW)
10/06 22:30 Clear 13.9°C 85% 1019mb 6.9mph (SSW)
10/06 22:15 Clear 14.2°C 84% 1019mb 6.9mph (SSW)
10/06 22:00 Clear 14.6°C 83% 1019mb 3.8mph (South)
10/06 21:45 Partly Cloudy 14.9°C 82% 1019mb 2.2mph (SW)
10/06 21:30 Partly Cloudy 15.1°C 80% 1019mb 3.8mph (South)
10/06 21:15 Partly Cloudy 15.4°C 78% 1018mb 3.8mph (SE)
10/06 21:00 Partly Cloudy 15.7°C 77% 1018mb 4.5mph (SW)
10/06 20:45 Partly Cloudy 15.8°C 77% 1018mb 6.9mph (South)
10/06 20:30 Partly Cloudy 16.0°C 77% 1018mb 5.4mph (SW)
10/06 20:15 Partly Cloudy 16.2°C 75% 1018mb 6.0mph (SW)
10/06 20:00 Partly Cloudy 16.5°C 74% 1018mb 8.3mph (SW)
10/06 19:45 Partly Cloudy 17.1°C 71% 1018mb 10.7mph (SW)
10/06 19:30 Partly Cloudy 17.9°C 68% 1018mb 9.8mph (South)
10/06 19:15 Partly Cloudy 18.0°C 66% 1018mb 8.3mph (West)
10/06 19:00 Partly Cloudy 18.1°C 66% 1018mb 3.1mph (South)
10/06 18:45 Partly Cloudy 18.6°C 66% 1017mb 9.8mph (WSW)
10/06 18:30 Partly Cloudy 18.6°C 66% 1017mb 14.5mph (SW)
10/06 18:15 Scattered Clouds 18.5°C 66% 1017mb 7.6mph (SE)
10/06 18:00 Scattered Clouds 18.3°C 69% 1017mb 6.0mph (SW)
10/06 17:45 Scattered Clouds 17.8°C 69% 1017mb 13.0mph (SSE)
10/06 17:30 Scattered Clouds 17.2°C 73% 1017mb 8.3mph (SSW)
10/06 17:15 Overcast 16.6°C 71% 1017mb 4.5mph (South)
10/06 17:00 Overcast 17.1°C 68% 1017mb 11.4mph (SW)
10/06 16:45 Mostly Cloudy 19.7°C 57% 1016mb 8.3mph (West)
10/06 16:30 Mostly Cloudy 21.3°C 54% 1016mb 15.2mph (South)
10/06 16:15 Mostly Cloudy 21.1°C 54% 1016mb 7.6mph (SSW)
10/06 16:00 Mostly Cloudy 21.9°C 51% 1016mb 8.3mph (SW)
10/06 15:45 Scattered Clouds 22.6°C 53% 1015mb 10.7mph (SW)
10/06 15:30 Scattered Clouds 22.9°C 52% 1015mb 8.3mph (SE)
10/06 15:15 Scattered Clouds 23.6°C 49% 1015mb 9.8mph (NW)
10/06 15:00 Scattered Clouds 23.8°C 51% 1015mb 8.3mph (SSE)
10/06 14:45 Scattered Clouds 23.6°C 51% 1016mb 9.2mph (SW)
10/06 14:30 Scattered Clouds 23.3°C 52% 1016mb 12.1mph (WSW)
10/06 14:15 Partly Cloudy 23.4°C 51% 1016mb 4.5mph (NW)
10/06 14:00 Partly Cloudy 23.1°C 52% 1016mb 11.4mph (SW)
10/06 13:45 Partly Cloudy 22.8°C 53% 1016mb 10.7mph (SE)
10/06 13:30 Partly Cloudy 23.7°C 51% 1016mb 12.1mph (South)
10/06 13:15 Partly Cloudy 23.5°C 52% 1016mb 13.6mph (South)

 

Any Reason For This?

To be honest, I don't really think there is a good reason for collecting this data... however I suppose I can use it as "dummy data" for future projects or if I wanted to make a nice looking chart. For the time being though, just enjoy watching the figures go up and down.

  • © Dale Hay, 2005 - 2016